sensor_id;sensor_type;location;lat;lon;timestamp;pressure;altitude;pressure_sealevel;temperature;humidity
11605;BME280;5858;43.076;25.626;2023-12-20T00:01:13;99500.84;;;1.33;100.00
11605;BME280;5858;43.076;25.626;2023-12-20T00:03:42;99610.13;;;2.18;100.00
11605;BME280;5858;43.076;25.626;2023-12-20T00:06:12;99610.38;;;2.15;100.00
11605;BME280;5858;43.076;25.626;2023-12-20T00:08:38;99612.69;;;2.08;100.00
11605;BME280;5858;43.076;25.626;2023-12-20T00:11:05;99462.91;;;1.13;100.00
11605;BME280;5858;43.076;25.626;2023-12-20T00:13:33;99595.88;;;1.87;100.00
11605;BME280;5858;43.076;25.626;2023-12-20T00:16:00;99585.09;;;1.79;100.00
11605;BME280;5858;43.076;25.626;2023-12-20T00:18:26;99543.53;;;1.60;100.00
11605;BME280;5858;43.076;25.626;2023-12-20T00:20:55;99481.69;;;1.19;100.00
11605;BME280;5858;43.076;25.626;2023-12-20T00:23:21;99551.81;;;1.55;100.00
11605;BME280;5858;43.076;25.626;2023-12-20T00:25:49;99440.72;;;0.82;100.00
11605;BME280;5858;43.076;25.626;2023-12-20T00:28:16;99440.13;;;0.89;100.00
11605;BME280;5858;43.076;25.626;2023-12-20T00:30:43;99554.78;;;1.62;100.00
11605;BME280;5858;43.076;25.626;2023-12-20T00:33:10;99551.31;;;1.50;100.00
11605;BME280;5858;43.076;25.626;2023-12-20T00:35:37;99576.09;;;1.81;100.00
11605;BME280;5858;43.076;25.626;2023-12-20T00:38:05;99535.25;;;1.53;100.00
11605;BME280;5858;43.076;25.626;2023-12-20T00:40:32;99460.22;;;0.90;100.00
11605;BME280;5858;43.076;25.626;2023-12-20T00:42:59;99569.53;;;1.76;100.00
11605;BME280;5858;43.076;25.626;2023-12-20T00:45:26;99460.50;;;1.10;100.00
11605;BME280;5858;43.076;25.626;2023-12-20T00:47:53;99534.53;;;1.63;100.00
11605;BME280;5858;43.076;25.626;2023-12-20T00:50:20;99561.50;;;1.77;100.00
11605;BME280;5858;43.076;25.626;2023-12-20T00:52:47;99535.00;;;1.68;100.00
11605;BME280;5858;43.076;25.626;2023-12-20T00:55:16;99568.44;;;1.89;100.00
11605;BME280;5858;43.076;25.626;2023-12-20T00:57:43;99458.72;;;1.10;100.00
11605;BME280;5858;43.076;25.626;2023-12-20T01:00:10;99567.47;;;1.79;100.00
11605;BME280;5858;43.076;25.626;2023-12-20T01:02:38;99515.72;;;1.56;100.00
11605;BME280;5858;43.076;25.626;2023-12-20T01:05:06;99512.25;;;1.55;100.00
11605;BME280;5858;43.076;25.626;2023-12-20T01:07:34;99492.59;;;1.26;100.00
11605;BME280;5858;43.076;25.626;2023-12-20T01:10:01;99528.53;;;1.61;100.00
11605;BME280;5858;43.076;25.626;2023-12-20T01:12:30;99520.53;;;1.51;100.00
11605;BME280;5858;43.076;25.626;2023-12-20T01:14:56;99526.16;;;1.46;100.00
11605;BME280;5858;43.076;25.626;2023-12-20T01:17:24;99528.44;;;1.51;100.00
11605;BME280;5858;43.076;25.626;2023-12-20T01:19:50;99435.97;;;0.98;100.00
11605;BME280;5858;43.076;25.626;2023-12-20T01:22:17;99484.34;;;1.19;100.00
11605;BME280;5858;43.076;25.626;2023-12-20T01:24:44;99530.94;;;1.64;100.00
11605;BME280;5858;43.076;25.626;2023-12-20T01:27:11;99514.41;;;1.62;100.00
11605;BME280;5858;43.076;25.626;2023-12-20T01:29:39;99471.88;;;1.33;100.00
11605;BME280;5858;43.076;25.626;2023-12-20T01:32:06;99512.00;;;1.58;100.00
11605;BME280;5858;43.076;25.626;2023-12-20T01:34:33;99509.13;;;1.62;100.00
11605;BME280;5858;43.076;25.626;2023-12-20T01:37:00;99503.63;;;1.42;100.00
11605;BME280;5858;43.076;25.626;2023-12-20T01:39:28;99488.41;;;1.35;100.00
11605;BME280;5858;43.076;25.626;2023-12-20T01:41:54;99402.78;;;0.84;100.00
11605;BME280;5858;43.076;25.626;2023-12-20T01:44:23;99279.16;;;0.16;100.00
11605;BME280;5858;43.076;25.626;2023-12-20T01:46:52;99369.63;;;0.71;100.00
11605;BME280;5858;43.076;25.626;2023-12-20T01:49:19;99438.47;;;1.22;100.00
11605;BME280;5858;43.076;25.626;2023-12-20T01:51:46;99373.56;;;0.76;100.00
11605;BME280;5858;43.076;25.626;2023-12-20T01:54:15;99466.00;;;1.29;100.00
11605;BME280;5858;43.076;25.626;2023-12-20T01:56:42;99465.88;;;1.31;100.00
11605;BME280;5858;43.076;25.626;2023-12-20T01:59:09;99377.03;;;0.77;100.00
11605;BME280;5858;43.076;25.626;2023-12-20T02:01:36;99483.59;;;1.40;100.00
11605;BME280;5858;43.076;25.626;2023-12-20T02:04:05;99449.31;;;1.40;100.00
11605;BME280;5858;43.076;25.626;2023-12-20T02:06:33;99404.44;;;1.19;100.00
11605;BME280;5858;43.076;25.626;2023-12-20T02:09:00;99441.91;;;1.34;100.00
11605;BME280;5858;43.076;25.626;2023-12-20T02:11:27;99427.06;;;1.21;100.00
11605;BME280;5858;43.076;25.626;2023-12-20T02:13:54;99416.16;;;1.26;100.00
11605;BME280;5858;43.076;25.626;2023-12-20T02:16:21;99284.56;;;0.48;100.00
11605;BME280;5858;43.076;25.626;2023-12-20T02:18:48;99348.66;;;0.91;100.00
11605;BME280;5858;43.076;25.626;2023-12-20T02:21:17;99311.69;;;0.71;100.00
11605;BME280;5858;43.076;25.626;2023-12-20T02:23:45;99351.16;;;0.93;100.00
11605;BME280;5858;43.076;25.626;2023-12-20T02:26:12;99412.59;;;1.16;100.00
11605;BME280;5858;43.076;25.626;2023-12-20T02:28:39;99408.94;;;1.39;100.00
11605;BME280;5858;43.076;25.626;2023-12-20T02:31:06;99398.97;;;1.00;100.00
11605;BME280;5858;43.076;25.626;2023-12-20T02:33:33;99262.03;;;0.32;100.00
11605;BME280;5858;43.076;25.626;2023-12-20T02:36:00;99398.56;;;1.26;100.00
11605;BME280;5858;43.076;25.626;2023-12-20T02:38:27;99249.13;;;0.29;100.00
11605;BME280;5858;43.076;25.626;2023-12-20T02:40:55;99299.72;;;0.67;100.00
11605;BME280;5858;43.076;25.626;2023-12-20T02:43:22;99386.34;;;1.25;100.00
11605;BME280;5858;43.076;25.626;2023-12-20T02:45:49;99268.75;;;0.48;100.00
11605;BME280;5858;43.076;25.626;2023-12-20T02:48:15;99378.47;;;1.03;100.00
11605;BME280;5858;43.076;25.626;2023-12-20T02:50:42;99371.97;;;1.18;100.00
11605;BME280;5858;43.076;25.626;2023-12-20T02:53:09;99366.72;;;1.07;100.00
11605;BME280;5858;43.076;25.626;2023-12-20T02:55:39;99375.69;;;1.16;100.00
11605;BME280;5858;43.076;25.626;2023-12-20T02:58:07;99386.47;;;1.13;100.00
11605;BME280;5858;43.076;25.626;2023-12-20T03:00:34;99334.16;;;0.86;100.00
11605;BME280;5858;43.076;25.626;2023-12-20T03:03:01;99181.56;;;-0.15;100.00
11605;BME280;5858;43.076;25.626;2023-12-20T03:05:28;99251.03;;;0.39;100.00
11605;BME280;5858;43.076;25.626;2023-12-20T03:07:54;99354.63;;;1.05;100.00
11605;BME280;5858;43.076;25.626;2023-12-20T03:10:21;99271.84;;;0.42;100.00
11605;BME280;5858;43.076;25.626;2023-12-20T03:12:48;99204.88;;;-0.21;100.00
11605;BME280;5858;43.076;25.626;2023-12-20T03:15:17;99229.63;;;0.21;100.00
11605;BME280;5858;43.076;25.626;2023-12-20T03:17:44;99227.59;;;0.24;100.00
11605;BME280;5858;43.076;25.626;2023-12-20T03:20:11;99324.72;;;0.72;100.00
11605;BME280;5858;43.076;25.626;2023-12-20T03:22:38;99323.78;;;0.73;100.00
11605;BME280;5858;43.076;25.626;2023-12-20T03:25:05;99297.09;;;0.67;100.00
11605;BME280;5858;43.076;25.626;2023-12-20T03:27:32;99321.13;;;0.84;100.00
11605;BME280;5858;43.076;25.626;2023-12-20T03:29:59;99295.19;;;0.69;100.00
11605;BME280;5858;43.076;25.626;2023-12-20T03:32:27;99208.00;;;0.17;100.00
11605;BME280;5858;43.076;25.626;2023-12-20T03:34:54;99193.06;;;0.18;100.00
11605;BME280;5858;43.076;25.626;2023-12-20T03:37:21;99353.34;;;0.99;100.00
11605;BME280;5858;43.076;25.626;2023-12-20T03:39:48;99247.69;;;0.37;100.00
11605;BME280;5858;43.076;25.626;2023-12-20T03:42:15;99222.91;;;0.39;100.00
11605;BME280;5858;43.076;25.626;2023-12-20T03:44:42;99330.34;;;1.01;100.00
11605;BME280;5858;43.076;25.626;2023-12-20T03:47:09;99315.50;;;1.00;100.00
11605;BME280;5858;43.076;25.626;2023-12-20T03:49:37;99290.00;;;0.78;100.00
11605;BME280;5858;43.076;25.626;2023-12-20T03:52:04;99253.06;;;0.57;100.00
11605;BME280;5858;43.076;25.626;2023-12-20T03:54:31;99294.13;;;0.60;100.00
11605;BME280;5858;43.076;25.626;2023-12-20T03:57:01;99148.56;;;-0.19;100.00
11605;BME280;5858;43.076;25.626;2023-12-20T03:59:28;99205.59;;;0.25;100.00
11605;BME280;5858;43.076;25.626;2023-12-20T04:01:55;99181.81;;;0.16;100.00
11605;BME280;5858;43.076;25.626;2023-12-20T04:04:22;99170.69;;;0.12;100.00
11605;BME280;5858;43.076;25.626;2023-12-20T04:06:50;99187.66;;;0.19;100.00
11605;BME280;5858;43.076;25.626;2023-12-20T04:09:17;99183.25;;;0.20;100.00
11605;BME280;5858;43.076;25.626;2023-12-20T04:11:44;99292.50;;;0.91;100.00
11605;BME280;5858;43.076;25.626;2023-12-20T04:14:11;99277.47;;;0.71;100.00
11605;BME280;5858;43.076;25.626;2023-12-20T04:16:37;99258.22;;;0.59;100.00
11605;BME280;5858;43.076;25.626;2023-12-20T04:19:05;99279.09;;;0.83;100.00
11605;BME280;5858;43.076;25.626;2023-12-20T04:21:32;99277.31;;;0.83;100.00
11605;BME280;5858;43.076;25.626;2023-12-20T04:24:00;99229.63;;;0.43;100.00
11605;BME280;5858;43.076;25.626;2023-12-20T04:26:27;99307.00;;;0.85;100.00
11605;BME280;5858;43.076;25.626;2023-12-20T04:28:54;99309.88;;;0.82;100.00
11605;BME280;5858;43.076;25.626;2023-12-20T04:31:21;99190.78;;;0.13;100.00
11605;BME280;5858;43.076;25.626;2023-12-20T04:33:48;99266.34;;;0.67;100.00
11605;BME280;5858;43.076;25.626;2023-12-20T04:36:15;99136.03;;;-0.26;100.00
11605;BME280;5858;43.076;25.626;2023-12-20T04:38:42;99193.41;;;0.24;100.00
11605;BME280;5858;43.076;25.626;2023-12-20T04:41:10;99153.13;;;0.02;100.00
11605;BME280;5858;43.076;25.626;2023-12-20T04:43:41;99163.75;;;0.11;100.00
11605;BME280;5858;43.076;25.626;2023-12-20T04:46:07;99247.44;;;0.62;100.00
11605;BME280;5858;43.076;25.626;2023-12-20T04:48:34;99246.97;;;0.57;100.00
11605;BME280;5858;43.076;25.626;2023-12-20T04:51:01;99180.59;;;0.20;100.00
11605;BME280;5858;43.076;25.626;2023-12-20T04:53:28;99138.88;;;-0.07;100.00
11605;BME280;5858;43.076;25.626;2023-12-20T04:55:55;99107.59;;;-0.33;100.00
11605;BME280;5858;43.076;25.626;2023-12-20T04:58:24;99194.72;;;0.19;100.00
11605;BME280;5858;43.076;25.626;2023-12-20T05:00:51;99161.13;;;0.11;100.00
11605;BME280;5858;43.076;25.626;2023-12-20T05:03:17;99254.59;;;0.71;100.00
11605;BME280;5858;43.076;25.626;2023-12-20T05:05:44;99252.22;;;0.68;100.00
11605;BME280;5858;43.076;25.626;2023-12-20T05:08:11;99214.78;;;0.53;100.00
11605;BME280;5858;43.076;25.626;2023-12-20T05:10:38;99261.56;;;0.61;100.00
11605;BME280;5858;43.076;25.626;2023-12-20T05:13:05;99238.56;;;0.63;100.00
11605;BME280;5858;43.076;25.626;2023-12-20T05:15:33;99202.34;;;0.33;100.00
11605;BME280;5858;43.076;25.626;2023-12-20T05:18:00;99166.28;;;0.02;100.00
11605;BME280;5858;43.076;25.626;2023-12-20T05:20:27;99140.34;;;-0.25;100.00
11605;BME280;5858;43.076;25.626;2023-12-20T05:22:56;99147.38;;;-0.04;100.00
11605;BME280;5858;43.076;25.626;2023-12-20T05:25:23;99160.91;;;0.03;100.00
11605;BME280;5858;43.076;25.626;2023-12-20T05:27:50;99064.34;;;-0.62;100.00
11605;BME280;5858;43.076;25.626;2023-12-20T05:30:17;99233.09;;;0.55;100.00
11605;BME280;5858;43.076;25.626;2023-12-20T05:32:46;99036.63;;;-0.55;100.00
11605;BME280;5858;43.076;25.626;2023-12-20T05:35:13;99060.06;;;-0.41;100.00
11605;BME280;5858;43.076;25.626;2023-12-20T05:37:40;99099.09;;;-0.14;100.00
11605;BME280;5858;43.076;25.626;2023-12-20T05:40:08;99216.53;;;0.75;100.00
11605;BME280;5858;43.076;25.626;2023-12-20T05:42:38;99208.03;;;0.72;100.00
11605;BME280;5858;43.076;25.626;2023-12-20T05:45:06;99058.09;;;-0.16;100.00
11605;BME280;5858;43.076;25.626;2023-12-20T05:47:35;99154.13;;;0.44;100.00
11605;BME280;5858;43.076;25.626;2023-12-20T05:50:09;99109.91;;;0.26;100.00
11605;BME280;5858;43.076;25.626;2023-12-20T05:52:36;99162.50;;;0.49;100.00
11605;BME280;5858;43.076;25.626;2023-12-20T05:55:11;99221.03;;;0.84;100.00
11605;BME280;5858;43.076;25.626;2023-12-20T05:57:38;99109.56;;;0.20;100.00
11605;BME280;5858;43.076;25.626;2023-12-20T06:00:17;99040.06;;;-0.21;100.00
11605;BME280;5858;43.076;25.626;2023-12-20T06:02:48;99025.38;;;-0.23;100.00
11605;BME280;5858;43.076;25.626;2023-12-20T06:05:21;99226.88;;;0.99;100.00
11605;BME280;5858;43.076;25.626;2023-12-20T06:07:48;98999.09;;;-0.23;100.00
11605;BME280;5858;43.076;25.626;2023-12-20T06:10:19;99125.66;;;0.49;100.00
11605;BME280;5858;43.076;25.626;2023-12-20T06:12:50;99222.91;;;1.05;100.00
11605;BME280;5858;43.076;25.626;2023-12-20T06:15:32;99176.59;;;1.02;100.00
11605;BME280;5858;43.076;25.626;2023-12-20T06:22:08;99157.56;;;1.19;100.00
11605;BME280;5858;43.076;25.626;2023-12-20T06:24:36;99160.28;;;1.29;100.00
11605;BME280;5858;43.076;25.626;2023-12-20T06:27:03;99118.31;;;0.96;100.00
11605;BME280;5858;43.076;25.626;2023-12-20T06:29:32;99121.06;;;1.15;100.00
11605;BME280;5858;43.076;25.626;2023-12-20T06:32:00;99024.91;;;0.47;100.00
11605;BME280;5858;43.076;25.626;2023-12-20T06:34:27;99212.22;;;1.80;100.00
11605;BME280;5858;43.076;25.626;2023-12-20T06:36:54;99110.59;;;1.45;100.00
11605;BME280;5858;43.076;25.626;2023-12-20T06:39:22;99011.84;;;0.77;100.00
11605;BME280;5858;43.076;25.626;2023-12-20T06:41:51;99130.53;;;1.69;100.00
11605;BME280;5858;43.076;25.626;2023-12-20T06:44:25;99088.41;;;1.48;100.00
11605;BME280;5858;43.076;25.626;2023-12-20T06:46:59;99092.03;;;1.56;100.00
11605;BME280;5858;43.076;25.626;2023-12-20T06:52:44;99122.50;;;2.01;100.00
11605;BME280;5858;43.076;25.626;2023-12-20T06:55:37;99034.91;;;1.36;100.00
11605;BME280;5858;43.076;25.626;2023-12-20T07:19:26;98985.56;;;1.98;100.00
11605;BME280;5858;43.076;25.626;2023-12-20T07:22:19;99020.63;;;2.38;99.49
11605;BME280;5858;43.076;25.626;2023-12-20T07:24:49;99097.06;;;2.88;99.17
11605;BME280;5858;43.076;25.626;2023-12-20T07:27:17;99020.88;;;2.55;99.26
11605;BME280;5858;43.076;25.626;2023-12-20T07:29:44;99152.69;;;3.35;99.38
11605;BME280;5858;43.076;25.626;2023-12-20T07:32:16;99042.41;;;2.69;100.00
11605;BME280;5858;43.076;25.626;2023-12-20T07:34:47;99066.06;;;2.90;99.86
11605;BME280;5858;43.076;25.626;2023-12-20T07:37:14;99041.41;;;2.80;99.99
11605;BME280;5858;43.076;25.626;2023-12-20T07:39:53;99040.59;;;2.89;100.00
11605;BME280;5858;43.076;25.626;2023-12-20T07:42:20;99088.63;;;3.41;100.00
11605;BME280;5858;43.076;25.626;2023-12-20T07:44:51;99143.94;;;3.71;99.61
11605;BME280;5858;43.076;25.626;2023-12-20T07:47:21;99027.31;;;3.18;98.62
11605;BME280;5858;43.076;25.626;2023-12-20T07:49:54;99025.63;;;3.27;99.09
11605;BME280;5858;43.076;25.626;2023-12-20T07:52:22;98981.28;;;3.11;99.27
11605;BME280;5858;43.076;25.626;2023-12-20T07:54:51;99045.22;;;3.71;99.21
11605;BME280;5858;43.076;25.626;2023-12-20T07:57:28;99005.38;;;3.45;98.41
11605;BME280;5858;43.076;25.626;2023-12-20T08:00:02;99129.38;;;4.50;97.80
11605;BME280;5858;43.076;25.626;2023-12-20T08:02:33;99056.38;;;4.20;97.03
11605;BME280;5858;43.076;25.626;2023-12-20T08:05:02;99124.22;;;4.76;96.40
11605;BME280;5858;43.076;25.626;2023-12-20T08:07:32;98922.84;;;3.69;95.23
11605;BME280;5858;43.076;25.626;2023-12-20T08:10:02;99052.09;;;4.36;95.45
11605;BME280;5858;43.076;25.626;2023-12-20T08:12:35;99074.13;;;4.37;96.06
11605;BME280;5858;43.076;25.626;2023-12-20T08:15:06;99071.56;;;4.45;96.62
11605;BME280;5858;43.076;25.626;2023-12-20T08:17:33;99027.41;;;4.18;96.44
11605;BME280;5858;43.076;25.626;2023-12-20T08:22:44;99088.63;;;4.78;96.82
11605;BME280;5858;43.076;25.626;2023-12-20T08:25:11;99038.94;;;4.45;96.43
11605;BME280;5858;43.076;25.626;2023-12-20T08:27:40;98890.31;;;3.59;96.38
11605;BME280;5858;43.076;25.626;2023-12-20T08:30:13;99062.53;;;4.91;96.42
11605;BME280;5858;43.076;25.626;2023-12-20T08:32:44;99035.13;;;4.83;95.20
11605;BME280;5858;43.076;25.626;2023-12-20T08:35:19;99058.38;;;4.89;94.17
11605;BME280;5858;43.076;25.626;2023-12-20T08:37:54;99004.00;;;4.85;93.79
11605;BME280;5858;43.076;25.626;2023-12-20T08:43:26;98951.78;;;4.59;93.28
11605;BME280;5858;43.076;25.626;2023-12-20T08:46:13;99077.09;;;5.31;94.04
11605;BME280;5858;43.076;25.626;2023-12-20T08:48:54;98872.31;;;4.33;93.34
11605;BME280;5858;43.076;25.626;2023-12-20T08:53:01;98960.63;;;4.86;93.19
11605;BME280;5858;43.076;25.626;2023-12-20T08:54:54;98935.75;;;4.61;93.69
11605;BME280;5858;43.076;25.626;2023-12-20T08:57:21;98987.38;;;5.26;93.58
11605;BME280;5858;43.076;25.626;2023-12-20T08:59:49;98910.16;;;5.03;92.93
11605;BME280;5858;43.076;25.626;2023-12-20T09:02:16;98906.91;;;5.18;93.31
11605;BME280;5858;43.076;25.626;2023-12-20T09:15:26;98820.00;;;5.46;91.53
11605;BME280;5858;43.076;25.626;2023-12-20T09:18:28;98883.81;;;6.03;90.25
11605;BME280;5858;43.076;25.626;2023-12-20T09:21:45;98813.41;;;5.82;89.03
11605;BME280;5858;43.076;25.626;2023-12-20T09:24:21;98844.47;;;6.22;86.98
11605;BME280;5858;43.076;25.626;2023-12-20T09:30:26;98757.81;;;6.13;86.02
11605;BME280;5858;43.076;25.626;2023-12-20T09:32:52;98872.09;;;6.93;87.04
11605;BME280;5858;43.076;25.626;2023-12-20T09:38:42;98820.28;;;6.81;87.14
11605;BME280;5858;43.076;25.626;2023-12-20T09:41:42;98775.81;;;6.58;86.45
11605;BME280;5858;43.076;25.626;2023-12-20T09:44:43;98925.88;;;7.67;85.91
11605;BME280;5858;43.076;25.626;2023-12-20T09:47:26;98917.97;;;7.81;84.42
11605;BME280;5858;43.076;25.626;2023-12-20T09:50:26;98760.25;;;6.86;83.80
11605;BME280;5858;43.076;25.626;2023-12-20T09:56:17;98871.38;;;7.77;84.07
11605;BME280;5858;43.076;25.626;2023-12-20T09:58:47;98721.75;;;7.05;83.20
11605;BME280;5858;43.076;25.626;2023-12-20T10:01:17;98848.56;;;8.06;78.74
11605;BME280;5858;43.076;25.626;2023-12-20T10:04:09;98708.44;;;7.36;78.48
11605;BME280;5858;43.076;25.626;2023-12-20T10:06:46;98699.31;;;7.53;77.52
11605;BME280;5858;43.076;25.626;2023-12-20T10:09:16;98681.47;;;7.77;78.16
11605;BME280;5858;43.076;25.626;2023-12-20T10:11:43;98798.13;;;8.71;76.78
11605;BME280;5858;43.076;25.626;2023-12-20T10:14:16;98847.25;;;9.21;75.53
11605;BME280;5858;43.076;25.626;2023-12-20T10:16:44;98816.44;;;9.04;73.98
11605;BME280;5858;43.076;25.626;2023-12-20T10:19:17;98819.66;;;9.50;74.44
11605;BME280;5858;43.076;25.626;2023-12-20T10:27:45;98639.94;;;8.71;72.78
11605;BME280;5858;43.076;25.626;2023-12-20T10:30:15;98774.28;;;9.50;73.22
11605;BME280;5858;43.076;25.626;2023-12-20T10:32:44;98657.63;;;8.93;73.76
11605;BME280;5858;43.076;25.626;2023-12-20T10:35:17;98762.88;;;9.63;73.67
11605;BME280;5858;43.076;25.626;2023-12-20T10:38:41;98653.66;;;9.04;73.09
11605;BME280;5858;43.076;25.626;2023-12-20T10:42:09;98818.03;;;10.34;71.01
11605;BME280;5858;43.076;25.626;2023-12-20T10:44:25;98622.34;;;9.12;70.71
11605;BME280;5858;43.076;25.626;2023-12-20T10:47:15;98656.00;;;9.35;70.51
11605;BME280;5858;43.076;25.626;2023-12-20T10:50:08;98613.91;;;9.58;69.86
11605;BME280;5858;43.076;25.626;2023-12-20T10:52:57;98797.50;;;10.69;69.42
11605;BME280;5858;43.076;25.626;2023-12-20T10:55:41;98710.59;;;10.24;68.66
11605;BME280;5858;43.076;25.626;2023-12-20T10:58:40;98669.16;;;10.14;68.10
11605;BME280;5858;43.076;25.626;2023-12-20T11:01:27;98637.84;;;10.01;65.93
11605;BME280;5858;43.076;25.626;2023-12-20T11:04:13;98604.25;;;9.92;64.54
11605;BME280;5858;43.076;25.626;2023-12-20T11:07:15;98610.75;;;10.10;64.52
11605;BME280;5858;43.076;25.626;2023-12-20T11:10:21;98691.75;;;10.87;64.30
11605;BME280;5858;43.076;25.626;2023-12-20T11:12:53;98770.25;;;11.42;63.48
11605;BME280;5858;43.076;25.626;2023-12-20T11:15:25;98575.59;;;10.55;60.04
11605;BME280;5858;43.076;25.626;2023-12-20T11:18:05;98768.00;;;11.65;59.46
11605;BME280;5858;43.076;25.626;2023-12-20T11:23:52;98655.66;;;11.50;59.49
11605;BME280;5858;43.076;25.626;2023-12-20T11:29:41;98739.22;;;12.07;59.59
11605;BME280;5858;43.076;25.626;2023-12-20T11:32:58;98559.22;;;10.91;59.54
11605;BME280;5858;43.076;25.626;2023-12-20T11:35:56;98557.56;;;10.96;57.90
11605;BME280;5858;43.076;25.626;2023-12-20T11:38:36;98729.94;;;12.03;57.01
11605;BME280;5858;43.076;25.626;2023-12-20T11:44:40;98705.81;;;12.03;55.35
11605;BME280;5858;43.076;25.626;2023-12-20T11:50:45;98695.47;;;12.06;53.91
11605;BME280;5858;43.076;25.626;2023-12-20T11:53:28;98602.50;;;11.47;56.13
11605;BME280;5858;43.076;25.626;2023-12-20T11:56:12;98505.91;;;10.89;60.19
11605;BME280;5858;43.076;25.626;2023-12-20T11:59:01;98569.09;;;11.23;61.09
11605;BME280;5858;43.076;25.626;2023-12-20T12:01:32;98516.59;;;11.16;61.03
11605;BME280;5858;43.076;25.626;2023-12-20T12:04:14;98535.94;;;11.51;60.56
11605;BME280;5858;43.076;25.626;2023-12-20T12:06:50;98582.28;;;11.91;58.24
11605;BME280;5858;43.076;25.626;2023-12-20T12:09:17;98674.78;;;12.40;59.94
11605;BME280;5858;43.076;25.626;2023-12-20T12:11:49;98657.69;;;12.34;62.78
11605;BME280;5858;43.076;25.626;2023-12-20T12:14:18;98620.19;;;12.08;62.41
11605;BME280;5858;43.076;25.626;2023-12-20T12:16:46;98666.34;;;12.36;62.89
11605;BME280;5858;43.076;25.626;2023-12-20T12:19:24;98578.97;;;12.02;62.34
11605;BME280;5858;43.076;25.626;2023-12-20T12:22:04;98487.53;;;11.46;63.67
11605;BME280;5858;43.076;25.626;2023-12-20T12:24:34;98623.84;;;12.26;64.10
11605;BME280;5858;43.076;25.626;2023-12-20T12:27:06;98629.22;;;12.20;65.48
11605;BME280;5858;43.076;25.626;2023-12-20T12:29:34;98460.97;;;11.38;66.06
11605;BME280;5858;43.076;25.626;2023-12-20T12:32:09;98506.66;;;11.56;64.04
11605;BME280;5858;43.076;25.626;2023-12-20T12:34:37;98625.06;;;12.37;64.36
11605;BME280;5858;43.076;25.626;2023-12-20T12:37:04;98650.22;;;12.43;64.34
11605;BME280;5858;43.076;25.626;2023-12-20T12:39:36;98552.09;;;12.15;62.79
11605;BME280;5858;43.076;25.626;2023-12-20T12:42:08;98542.78;;;12.18;61.87
11605;BME280;5858;43.076;25.626;2023-12-20T12:44:37;98529.81;;;12.15;58.71
11605;BME280;5858;43.076;25.626;2023-12-20T12:47:09;98612.13;;;12.66;58.46
11605;BME280;5858;43.076;25.626;2023-12-20T12:49:51;98569.63;;;12.18;59.98
11605;BME280;5858;43.076;25.626;2023-12-20T12:52:19;98520.22;;;11.81;61.14
11605;BME280;5858;43.076;25.626;2023-12-20T12:54:46;98492.41;;;11.68;62.66
11605;BME280;5858;43.076;25.626;2023-12-20T12:57:14;98576.44;;;12.14;62.35
11605;BME280;5858;43.076;25.626;2023-12-20T12:59:43;98590.84;;;12.33;62.44
11605;BME280;5858;43.076;25.626;2023-12-20T13:02:12;98587.75;;;12.22;62.07
11605;BME280;5858;43.076;25.626;2023-12-20T13:04:43;98588.41;;;12.11;63.53
11605;BME280;5858;43.076;25.626;2023-12-20T13:07:12;98600.41;;;12.02;65.00
11605;BME280;5858;43.076;25.626;2023-12-20T13:09:47;98513.06;;;11.35;65.79
11605;BME280;5858;43.076;25.626;2023-12-20T13:12:17;98596.72;;;11.90;67.38
11605;BME280;5858;43.076;25.626;2023-12-20T13:14:46;98487.38;;;11.01;68.47
11605;BME280;5858;43.076;25.626;2023-12-20T13:17:14;98595.28;;;11.61;69.76
11605;BME280;5858;43.076;25.626;2023-12-20T13:19:42;98497.22;;;10.87;70.37
11605;BME280;5858;43.076;25.626;2023-12-20T13:22:10;98528.34;;;11.15;71.16
11605;BME280;5858;43.076;25.626;2023-12-20T13:24:39;98582.91;;;11.53;72.40
11605;BME280;5858;43.076;25.626;2023-12-20T13:27:07;98558.00;;;11.13;71.51
11605;BME280;5858;43.076;25.626;2023-12-20T13:29:36;98486.09;;;10.70;70.82
11605;BME280;5858;43.076;25.626;2023-12-20T13:32:04;98511.22;;;10.76;68.37
11605;BME280;5858;43.076;25.626;2023-12-20T13:34:33;98570.13;;;11.09;68.09
11605;BME280;5858;43.076;25.626;2023-12-20T13:37:01;98581.69;;;11.16;67.70
11605;BME280;5858;43.076;25.626;2023-12-20T13:39:32;98459.91;;;10.39;67.02
11605;BME280;5858;43.076;25.626;2023-12-20T13:42:05;98522.34;;;10.80;67.66
11605;BME280;5858;43.076;25.626;2023-12-20T13:44:34;98467.13;;;10.39;68.35
11605;BME280;5858;43.076;25.626;2023-12-20T13:47:01;98600.00;;;11.13;70.83
11605;BME280;5858;43.076;25.626;2023-12-20T13:49:28;98584.13;;;11.04;71.42
11605;BME280;5858;43.076;25.626;2023-12-20T13:51:55;98570.28;;;10.81;72.17
11605;BME280;5858;43.076;25.626;2023-12-20T13:54:25;98505.78;;;10.36;72.24
11605;BME280;5858;43.076;25.626;2023-12-20T13:56:51;98576.06;;;10.78;72.57
11605;BME280;5858;43.076;25.626;2023-12-20T13:59:20;98422.69;;;9.77;73.39
11605;BME280;5858;43.076;25.626;2023-12-20T14:01:47;98456.72;;;10.03;73.13
11605;BME280;5858;43.076;25.626;2023-12-20T14:04:15;98578.72;;;10.71;73.35
11605;BME280;5858;43.076;25.626;2023-12-20T14:06:42;98484.41;;;9.89;73.42
11605;BME280;5858;43.076;25.626;2023-12-20T14:09:09;98505.13;;;10.21;73.88
11605;BME280;5858;43.076;25.626;2023-12-20T14:11:38;98557.88;;;10.47;74.33
11605;BME280;5858;43.076;25.626;2023-12-20T14:14:06;98578.47;;;10.53;76.18
11605;BME280;5858;43.076;25.626;2023-12-20T14:16:38;98584.19;;;10.44;76.94
11605;BME280;5858;43.076;25.626;2023-12-20T14:19:05;98520.38;;;9.93;77.66
11605;BME280;5858;43.076;25.626;2023-12-20T14:21:34;98542.25;;;10.03;78.13
11605;BME280;5858;43.076;25.626;2023-12-20T14:24:01;98554.38;;;10.05;78.81
11605;BME280;5858;43.076;25.626;2023-12-20T14:26:29;98507.13;;;9.71;79.11
11605;BME280;5858;43.076;25.626;2023-12-20T14:28:56;98574.53;;;10.08;79.76
11605;BME280;5858;43.076;25.626;2023-12-20T14:31:23;98585.25;;;10.15;80.71
11605;BME280;5858;43.076;25.626;2023-12-20T14:33:52;98606.63;;;10.08;80.87
11605;BME280;5858;43.076;25.626;2023-12-20T14:36:21;98557.63;;;9.94;81.24
11605;BME280;5858;43.076;25.626;2023-12-20T14:38:48;98528.66;;;9.63;81.79